Decoded Metar for KDNL (AUGUSTA/DANIEL in GA, USA) (IATA:DNL) | Meteo·Mobile Aviation Weather
aviador You're here:

KDNL Decoded Metar

AUGUSTA/DANIEL in GA, USA
Report Time2018-12-16 09:53:00
UTC Time2018-12-16 10:18:50
Flight Rules vfr VFR
WindVRB at 03 kt
Visibility9999 m
Phenomena:N/A
Clouds:N/A
Expected CloudBase > 800 ft AGL from Temp-Dew spread
CeilingNone
Temp09°C (ISA -5)
Dew Point07°C (87% RH)
AAT7.2°C
QNH1017 hPa
Density Alt-187 ft
Elevation427 ft
Report Wrong Elevation
Raw Report
METAR KDNL 160953Z AUTO VRB03KT 10SM CLR 09/07 A3002 RMK AO2 SLP163
T00890067 $=

Extra information for KDNL:More info

Metar Taf Metar & Taf Last 4 Metars F.Rules Stats Wind Profile Meteogram Temp Stats Airport Information Weather charts Add Link Nearby VenuesMetar ALERT Operation Metar Decoded Social comments

AIRNAV info for KDNL